Time;durP1;ratioP1;P1;durP2;ratioP2;P2;SDS_P1;SDS_P2;PMS_P1;PMS_P2;Temp;Humidity;BMP_temperature;BMP_pressure;BME280_temperature;BME280_humidity;BME280_pressure;Samples;Min_cycle;Max_cycle;Signal;HPM_P1;HPM_P2
2023/04/12 00:05:45;;;;;;;13.00;6.00;;;8.50;99.90;;;;;;5057928;23;20034;-81
2023/04/12 00:13:13;;;;;;;15.87;7.27;;;8.50;99.90;;;;;;4970229;28;40307;-79
2023/04/12 00:23:08;;;;;;;10.97;4.33;;;8.50;99.90;;;;;;4965254;28;40652;-80
2023/04/12 00:25:54;;;;;;;12.47;4.93;;;8.50;99.90;;;;;;5882736;23;41145;-79
2023/04/12 00:28:51;;;;;;;14.03;5.67;;;8.40;99.90;;;;;;4919114;29;35185;-81
2023/04/12 00:32:00;;;;;;;10.00;4.60;;;8.40;99.90;;;;;;4906176;29;40387;-80
2023/04/12 00:48:19;;;;;;;12.13;3.73;;;8.40;99.90;;;;;;5781850;23;20032;-82
2023/04/12 00:50:50;;;;;;;10.17;5.03;;;8.40;99.90;;;;;;4961582;28;37615;-79
2023/04/12 00:58:38;;;;;;;11.00;3.70;;;8.40;99.90;;;;;;5906530;23;20019;-80
2023/04/12 01:24:12;;;;;;;9.27;2.77;;;8.30;99.90;;;;;;5728167;23;20111;-81
2023/04/12 01:27:45;;;;;;;9.30;2.60;;;8.30;99.90;;;;;;4876845;29;41810;-80
2023/04/12 01:38:05;;;;;;;5.53;2.90;;;8.30;99.90;;;;;;4820679;29;38659;-81
2023/04/12 01:45:18;;;;;;;5.90;2.30;;;8.30;99.90;;;;;;4840945;29;40553;-81
2023/04/12 01:51:41;;;;;;;7.53;2.35;;;8.30;99.90;;;;;;4817653;29;50376;-80
2023/04/12 01:54:24;;;;;;;8.20;2.10;;;8.30;99.90;;;;;;4847005;29;40243;-81
2023/04/12 02:00:39;;;;;;;8.80;2.43;;;8.30;99.90;;;;;;4829735;29;40240;-80
2023/04/12 02:06:48;;;;;;;5.23;2.17;;;8.30;99.90;;;;;;4811467;29;50552;-80
2023/04/12 02:09:46;;;;;;;5.28;1.80;;;8.30;99.90;;;;;;4786080;29;40219;-81
2023/04/12 02:21:14;;;;;;;4.63;2.13;;;8.20;99.90;;;;;;4959074;23;20028;-80
2023/04/12 02:24:08;;;;;;;7.07;2.30;;;8.20;99.90;;;;;;4926544;29;39331;-79
2023/04/12 02:26:55;;;;;;;3.63;2.17;;;8.20;99.90;;;;;;4872256;29;38756;-80
2023/04/12 02:29:44;;;;;;;5.73;2.03;;;8.30;99.90;;;;;;4937858;28;39430;-80
2023/04/12 02:32:15;;;;;;;6.23;2.33;;;8.30;99.90;;;;;;4863655;29;39479;-80
2023/04/12 02:34:52;;;;;;;3.93;2.53;;;8.20;99.90;;;;;;4926033;29;38732;-80
2023/04/12 02:38:07;;;;;;;4.90;2.40;;;8.30;99.90;;;;;;4895706;28;38623;-80
2023/04/12 02:40:59;;;;;;;5.80;2.53;;;8.30;99.90;;;;;;4892460;29;49980;-79
2023/04/12 02:43:39;;;;;;;5.90;2.40;;;8.20;99.90;;;;;;4882615;29;39404;-80
2023/04/12 02:46:37;;;;;;;7.00;2.87;;;8.20;99.90;;;;;;4896782;29;39901;-79
2023/04/12 02:49:13;;;;;;;6.43;3.03;;;8.20;99.90;;;;;;4864266;29;38670;-79
2023/04/12 02:52:52;;;;;;;6.07;2.60;;;8.20;99.90;;;;;;4925655;28;40307;-80
2023/04/12 02:56:23;;;;;;;8.37;2.80;;;8.20;99.90;;;;;;4875056;29;49393;-81
2023/04/12 02:59:15;;;;;;;9.03;2.73;;;8.20;99.90;;;;;;4865626;29;40013;-80
2023/04/12 03:02:37;;;;;;;8.03;3.07;;;8.20;99.90;;;;;;4796096;29;50367;-80
2023/04/12 03:08:31;;;;;;;9.73;3.00;;;8.20;99.90;;;;;;4818878;29;50725;-80
2023/04/12 03:11:44;;;;;;;5.20;2.90;;;8.20;99.90;;;;;;4829642;29;39254;-80
2023/04/12 03:15:09;;;;;;;4.83;2.80;;;8.20;99.90;;;;;;4817646;29;38778;-80
2023/04/12 03:18:24;;;;;;;8.50;3.23;;;8.20;99.90;;;;;;4829240;29;40313;-80
2023/04/12 03:21:32;;;;;;;4.83;3.20;;;8.30;99.90;;;;;;4840911;29;39314;-80
2023/04/12 03:24:58;;;;;;;4.53;2.83;;;8.30;99.90;;;;;;4860608;29;39549;-81
2023/04/12 03:28:51;;;;;;;3.90;3.00;;;8.30;99.90;;;;;;4815086;29;38867;-80
2023/04/12 03:32:01;;;;;;;8.73;3.60;;;8.30;99.90;;;;;;4850061;29;40350;-82
2023/04/12 03:34:46;;;;;;;6.50;3.40;;;8.30;99.90;;;;;;4858896;29;49566;-81
2023/04/12 03:38:30;;;;;;;9.83;3.93;;;8.30;99.90;;;;;;4866218;29;49327;-80
2023/04/12 03:41:02;;;;;;;6.57;4.13;;;8.30;99.90;;;;;;4816760;29;38705;-79
2023/04/12 03:43:56;;;;;;;8.07;4.10;;;8.30;99.90;;;;;;4851221;29;50189;-81
2023/04/12 03:47:19;;;;;;;5.83;4.57;;;8.30;99.90;;;;;;4873010;28;49613;-81
2023/04/12 03:50:11;;;;;;;6.80;4.43;;;8.40;99.90;;;;;;4776850;29;50092;-80
2023/04/12 03:53:08;;;;;;;5.50;4.63;;;8.40;99.90;;;;;;4887886;29;49115;-80
2023/04/12 03:56:09;;;;;;;6.40;4.60;;;8.40;99.90;;;;;;4843420;29;48621;-79
2023/04/12 03:59:08;;;;;;;9.27;5.00;;;8.40;99.90;;;;;;4836416;29;50231;-79
2023/04/12 04:01:42;;;;;;;7.67;5.23;;;8.40;99.90;;;;;;4897188;28;49120;-81
2023/04/12 04:04:28;;;;;;;7.93;5.93;;;8.50;99.90;;;;;;4893075;28;38676;-81
2023/04/12 04:07:47;;;;;;;9.80;5.97;;;8.40;99.90;;;;;;4904788;28;39796;-79
2023/04/12 04:10:27;;;;;;;9.00;6.07;;;8.50;99.90;;;;;;4896210;28;48261;-79
2023/04/12 04:13:09;;;;;;;6.60;5.90;;;8.50;99.90;;;;;;4906663;29;41262;-81
2023/04/12 04:16:35;;;;;;;13.93;8.07;;;8.50;99.90;;;;;;4905395;29;50380;-80
2023/04/12 04:19:23;;;;;;;8.97;7.97;;;8.50;99.90;;;;;;4894066;28;39562;-81
2023/04/12 04:26:09;;;;;;;13.67;7.60;;;8.50;99.90;;;;;;4900063;28;40244;-81
2023/04/12 05:05:01;;;;;;;12.40;8.27;;;9.00;99.90;;;;;;4945072;28;40592;-80
2023/04/12 05:08:31;;;;;;;14.23;8.33;;;9.00;99.90;;;;;;4904640;28;40483;-80
2023/04/12 05:12:04;;;;;;;15.67;7.93;;;9.00;99.90;;;;;;4927893;28;39916;-78
2023/04/12 05:15:30;;;;;;;19.50;8.57;;;9.00;99.90;;;;;;4890576;29;38647;-80
2023/04/12 05:24:14;;;;;;;21.23;7.03;;;9.00;99.90;;;;;;5213238;23;20036;-79
2023/04/12 05:26:53;;;;;;;14.63;6.33;;;9.00;99.90;;;;;;4935139;28;48153;-80
2023/04/12 05:35:48;;;;;;;22.07;4.30;;;9.00;99.90;;;;;;5899675;23;20011;-80
2023/04/12 05:38:35;;;;;;;20.40;4.10;;;8.90;99.90;;;;;;5043036;23;20555;-75
2023/04/12 05:41:04;;;;;;;29.93;4.20;;;8.90;99.90;;;;;;4941396;28;39382;-75
2023/04/12 05:43:31;;;;;;;22.23;4.50;;;8.90;99.90;;;;;;4947436;28;39149;-76
2023/04/12 05:45:58;;;;;;;17.87;3.80;;;8.90;99.90;;;;;;4931632;28;37340;-79
2023/04/12 06:20:24;;;;;;;28.63;5.03;;;8.90;99.90;;;;;;5726099;23;20048;-81
2023/04/12 06:51:26;;;;;;;36.27;5.57;;;9.40;99.90;;;;;;5461798;23;20049;-80
2023/04/12 06:53:53;;;;;;;36.60;6.87;;;9.50;99.90;;;;;;4917313;29;36309;-80
2023/04/12 06:56:19;;;;;;;31.40;5.77;;;9.50;99.90;;;;;;4925667;29;39173;-80
2023/04/12 06:58:45;;;;;;;25.00;3.87;;;9.50;99.90;;;;;;4914618;29;37991;-80
2023/04/12 07:01:21;;;;;;;25.45;4.22;;;9.60;99.90;;;;;;4917928;29;38674;-81
2023/04/12 07:03:47;;;;;;;28.00;4.45;;;9.70;99.90;;;;;;4913807;29;37394;-80
2023/04/12 07:06:13;;;;;;;32.58;4.65;;;9.70;99.90;;;;;;4919677;29;37317;-81
2023/04/12 07:08:39;;;;;;;31.25;4.97;;;9.80;99.90;;;;;;4924974;29;39044;-81
2023/04/12 07:11:05;;;;;;;27.27;3.90;;;9.70;99.90;;;;;;4910543;29;38715;-80
2023/04/12 07:13:31;;;;;;;30.97;4.20;;;9.60;99.90;;;;;;4930265;29;35775;-80
2023/04/12 07:15:59;;;;;;;25.00;4.63;;;9.60;99.90;;;;;;4919424;29;38495;-78
2023/04/12 07:18:25;;;;;;;28.52;5.28;;;9.70;99.90;;;;;;4897854;29;37659;-80
2023/04/12 07:20:55;;;;;;;31.58;5.68;;;9.70;99.90;;;;;;4910888;29;39708;-80
2023/04/12 07:23:21;;;;;;;24.95;4.95;;;9.80;99.90;;;;;;4911640;29;37083;-79
2023/04/12 07:25:47;;;;;;;38.15;6.15;;;9.90;99.90;;;;;;4895642;29;39651;-79
2023/04/12 07:28:13;;;;;;;23.73;5.25;;;10.20;99.90;;;;;;4912201;29;39560;-78
2023/04/12 07:30:40;;;;;;;21.08;4.32;;;10.50;99.90;;;;;;4912120;29;38684;-80
2023/04/12 07:33:06;;;;;;;26.33;4.78;;;10.80;99.90;;;;;;4898099;29;35832;-79
2023/04/12 07:35:33;;;;;;;18.50;3.25;;;11.10;99.90;;;;;;4890267;29;37598;-78
2023/04/12 07:38:03;;;;;;;34.28;4.53;;;11.30;99.90;;;;;;4901480;29;38829;-80
2023/04/12 07:40:29;;;;;;;36.30;5.68;;;11.30;99.90;;;;;;4923363;29;50130;-80
2023/04/12 07:42:55;;;;;;;32.90;4.50;;;11.20;99.90;;;;;;4917253;29;37510;-78
2023/04/12 07:45:21;;;;;;;23.60;4.18;;;11.20;99.90;;;;;;4896208;29;39030;-80
2023/04/12 07:47:47;;;;;;;22.33;3.72;;;11.10;99.90;;;;;;4922418;29;40094;-80
2023/04/12 07:50:14;;;;;;;27.55;5.10;;;11.10;99.90;;;;;;4895846;29;38250;-81
2023/04/12 07:52:40;;;;;;;30.42;4.28;;;11.10;99.90;;;;;;4918841;29;36732;-80
2023/04/12 07:55:06;;;;;;;24.42;4.63;;;10.90;99.90;;;;;;4928054;28;38211;-79
2023/04/12 07:57:32;;;;;;;29.92;4.82;;;10.80;99.90;;;;;;4940893;28;39731;-79
2023/04/12 07:59:58;;;;;;;26.40;5.68;;;10.70;99.90;;;;;;4922661;28;38083;-80
2023/04/12 08:02:24;;;;;;;27.70;4.63;;;10.70;99.90;;;;;;4918011;28;36536;-79
2023/04/12 08:04:54;;;;;;;23.42;4.35;;;10.70;99.90;;;;;;4929658;28;39344;-79
2023/04/12 08:07:26;;;;;;;26.85;5.28;;;10.70;99.90;;;;;;4923025;29;37853;-79
2023/04/12 08:09:53;;;;;;;23.73;3.45;;;10.80;99.90;;;;;;4929879;29;37995;-80
2023/04/12 08:12:20;;;;;;;26.83;4.53;;;10.90;99.90;;;;;;4923533;29;37008;-80
2023/04/12 08:14:46;;;;;;;22.88;4.05;;;11.20;99.90;;;;;;4931057;28;37583;-80
2023/04/12 08:17:12;;;;;;;30.33;4.30;;;11.30;99.90;;;;;;4949048;28;39553;-79
2023/04/12 08:19:40;;;;;;;30.48;4.93;;;11.30;99.90;;;;;;4928617;29;37607;-79
2023/04/12 08:22:13;;;;;;;27.40;4.78;;;11.50;99.90;;;;;;4939161;29;36056;-80
2023/04/12 08:24:39;;;;;;;29.88;4.82;;;11.80;99.90;;;;;;4939920;28;40187;-79
2023/04/12 08:27:05;;;;;;;20.85;4.55;;;12.00;99.90;;;;;;4922641;29;38045;-80
2023/04/12 08:29:33;;;;;;;23.85;4.50;;;12.10;99.90;;;;;;4921206;29;37068;-80
2023/04/12 08:32:00;;;;;;;24.73;4.68;;;11.90;99.90;;;;;;4922885;29;36088;-81
2023/04/12 08:34:26;;;;;;;32.15;5.00;;;11.90;99.90;;;;;;4923234;28;39642;-80
2023/04/12 08:36:52;;;;;;;20.95;4.25;;;12.20;99.90;;;;;;4944787;28;38973;-81
2023/04/12 08:39:18;;;;;;;21.00;4.15;;;12.50;99.90;;;;;;4942147;28;39771;-80
2023/04/12 08:41:45;;;;;;;23.50;4.20;;;12.60;99.90;;;;;;4921118;28;36865;-78
2023/04/12 08:44:11;;;;;;;23.30;3.92;;;12.70;99.90;;;;;;4921948;29;37785;-79
2023/04/12 08:46:37;;;;;;;23.10;4.07;;;12.60;99.90;;;;;;4941805;28;39049;-78
2023/04/12 08:49:04;;;;;;;19.75;4.47;;;12.60;99.90;;;;;;4920272;29;37735;-78
2023/04/12 08:51:32;;;;;;;27.67;3.75;;;12.50;99.90;;;;;;4931425;28;37059;-79
2023/04/12 08:53:58;;;;;;;21.50;3.75;;;12.50;99.90;;;;;;4915459;29;37613;-79
2023/04/12 08:56:25;;;;;;;21.38;4.70;;;12.40;99.90;;;;;;4922234;28;38023;-79
2023/04/12 08:58:51;;;;;;;20.90;3.22;;;12.30;99.90;;;;;;4935091;28;39714;-78
2023/04/12 09:01:19;;;;;;;19.63;4.20;;;12.20;99.90;;;;;;4937588;28;37681;-78
2023/04/12 09:03:45;;;;;;;25.95;4.65;;;12.20;99.90;;;;;;4921888;29;38055;-78
2023/04/12 09:06:12;;;;;;;18.80;3.35;;;12.00;99.90;;;;;;4927908;29;39460;-79
2023/04/12 09:08:55;;;;;;;23.38;4.07;;;11.90;99.90;;;;;;4933069;28;38523;-77
2023/04/12 09:11:23;;;;;;;;;;;11.90;99.90;;;;;;4942916;28;37449;-80
2023/04/12 09:13:50;;;;;;;19.67;4.30;;;12.00;99.90;;;;;;4949655;28;40525;-81
2023/04/12 09:16:36;;;;;;;24.67;4.80;;;12.20;99.90;;;;;;4929556;29;38931;-79
2023/04/12 09:19:05;;;;;;;22.83;3.72;;;12.40;99.90;;;;;;4927462;28;39148;-81
2023/04/12 09:21:35;;;;;;;18.77;3.78;;;12.30;99.90;;;;;;5230009;23;36226;-81
2023/04/12 09:24:11;;;;;;;23.15;4.55;;;12.10;99.90;;;;;;4930067;29;40272;-80
2023/04/12 09:26:39;;;;;;;20.88;3.53;;;12.40;99.90;;;;;;4930736;28;49257;-80
2023/04/12 09:29:25;;;;;;;23.45;4.57;;;12.70;99.90;;;;;;4933258;29;38986;-81
2023/04/12 09:32:03;;;;;;;19.52;3.47;;;12.80;99.90;;;;;;4932320;29;38814;-81
2023/04/12 09:34:36;;;;;;;22.45;4.10;;;12.70;99.90;;;;;;4934325;28;48855;-80
2023/04/12 09:37:47;;;;;;;21.02;3.70;;;12.50;99.90;;;;;;4942088;28;38025;-83
2023/04/12 09:40:23;;;;;;;22.42;3.05;;;12.60;99.90;;;;;;4935477;28;48775;-82
2023/04/12 09:43:08;;;;;;;17.10;2.97;;;12.30;99.90;;;;;;4942372;28;40061;-82
2023/04/12 09:45:37;;;;;;;21.20;3.13;;;12.10;99.90;;;;;;4942360;23;48350;-80
2023/04/12 09:48:05;;;;;;;16.30;3.50;;;12.00;99.90;;;;;;4914355;29;38537;-80
2023/04/12 09:50:33;;;;;;;20.13;4.05;;;11.90;99.90;;;;;;4937047;28;37762;-80
2023/04/12 09:53:01;;;;;;;20.70;3.83;;;11.80;99.90;;;;;;4906096;29;37727;-80
2023/04/12 09:55:30;;;;;;;15.77;3.05;;;11.90;99.90;;;;;;4927874;29;48655;-81
2023/04/12 09:58:02;;;;;;;19.88;3.33;;;11.80;99.90;;;;;;4912186;29;37761;-80
2023/04/12 10:00:30;;;;;;;17.73;3.00;;;11.70;99.90;;;;;;4911160;29;46700;-80
2023/04/12 10:03:00;;;;;;;15.25;2.85;;;11.70;99.90;;;;;;4909512;29;37490;-80
2023/04/12 10:05:26;;;;;;;10.63;2.13;;;11.90;99.90;;;;;;4926764;29;39459;-80
2023/04/12 10:07:53;;;;;;;16.75;2.60;;;11.70;99.90;;;;;;4915798;29;37626;-81
2023/04/12 10:10:20;;;;;;;14.43;2.60;;;11.80;99.90;;;;;;4941300;29;38821;-81
2023/04/12 10:12:47;;;;;;;13.27;2.33;;;11.80;99.90;;;;;;4920941;29;37153;-81
2023/04/12 10:15:16;;;;;;;14.90;2.70;;;12.30;99.90;;;;;;4934170;29;39563;-81
2023/04/12 10:17:52;;;;;;;14.45;2.58;;;12.30;99.90;;;;;;4916291;29;39441;-81
2023/04/12 10:20:20;;;;;;;15.00;2.05;;;12.30;99.90;;;;;;4922742;29;39123;-80
2023/04/12 10:22:52;;;;;;;12.88;2.35;;;12.30;99.90;;;;;;4920119;29;36814;-80
2023/04/12 10:25:24;;;;;;;11.38;2.08;;;12.50;99.90;;;;;;4937943;29;41558;-81
2023/04/12 10:27:50;;;;;;;10.00;1.70;;;12.70;99.90;;;;;;4921221;29;38428;-81
2023/04/12 10:30:31;;;;;;;11.25;2.10;;;13.10;99.90;;;;;;4923569;29;39074;-81
2023/04/12 10:33:04;;;;;;;10.25;1.52;;;13.50;99.90;;;;;;4914116;29;36606;-80
2023/04/12 10:35:50;;;;;;;10.45;2.28;;;13.70;99.90;;;;;;4922985;29;48535;-79
2023/04/12 10:38:22;;;;;;;10.27;2.60;;;13.70;99.90;;;;;;4929179;28;39210;-80
2023/04/12 10:41:12;;;;;;;6.13;1.40;;;13.70;99.90;;;;;;4941134;28;39279;-80
2023/04/12 10:43:44;;;;;;;6.25;1.60;;;13.90;99.90;;;;;;4921498;28;47140;-79
2023/04/12 10:46:37;;;;;;;9.95;1.85;;;14.00;99.90;;;;;;4884128;29;39885;-80
2023/04/12 10:49:17;;;;;;;6.53;1.63;;;14.00;99.90;;;;;;4943178;29;40699;-80
2023/04/12 10:52:09;;;;;;;5.95;1.17;;;13.70;99.90;;;;;;4933838;29;46981;-81
2023/04/12 10:54:38;;;;;;;7.55;1.63;;;13.10;99.90;;;;;;4937346;28;47508;-80
2023/04/12 10:57:05;;;;;;;4.07;1.23;;;12.90;99.90;;;;;;4946848;28;40360;-80
2023/04/12 10:59:55;;;;;;;7.13;1.40;;;12.90;99.90;;;;;;4943289;28;38721;-80
2023/04/12 11:02:25;;;;;;;6.82;1.50;;;12.80;99.90;;;;;;4932983;29;38061;-79
2023/04/12 11:05:08;;;;;;;8.50;1.60;;;13.00;99.90;;;;;;4933654;29;36619;-80
2023/04/12 11:07:40;;;;;;;9.60;1.90;;;13.10;99.90;;;;;;4938106;29;47617;-80
2023/04/12 11:10:14;;;;;;;6.90;1.60;;;13.10;99.90;;;;;;4916924;28;37923;-80
2023/04/12 11:12:41;;;;;;;5.40;1.45;;;13.10;99.90;;;;;;4932660;28;38668;-80
2023/04/12 11:15:15;;;;;;;8.18;1.80;;;13.40;99.90;;;;;;4938948;28;37663;-81
2023/04/12 11:18:08;;;;;;;9.35;1.85;;;13.50;99.90;;;;;;4929750;29;40839;-80
2023/04/12 11:21:00;;;;;;;8.13;1.63;;;13.60;99.90;;;;;;4913575;28;48838;-80
2023/04/12 11:23:40;;;;;;;7.40;1.85;;;13.10;99.90;;;;;;4906948;28;39067;-78
2023/04/12 11:26:21;;;;;;;10.00;1.83;;;13.10;99.90;;;;;;4898608;29;36071;-79
2023/04/12 11:28:59;;;;;;;6.90;1.63;;;13.30;99.90;;;;;;4926843;29;39791;-79
2023/04/12 11:32:21;;;;;;;7.20;1.90;;;13.40;99.90;;;;;;4901505;28;40412;-80
2023/04/12 11:35:07;;;;;;;8.93;1.85;;;13.20;99.90;;;;;;4933999;23;40084;-80
2023/04/12 11:37:34;;;;;;;6.07;1.83;;;12.90;99.90;;;;;;4897147;29;37783;-81
2023/04/12 11:40:04;;;;;;;11.43;2.10;;;12.70;99.90;;;;;;4900885;29;39293;-80
2023/04/12 11:52:39;;;;;;;8.82;2.08;;;12.50;99.90;;;;;;4944617;28;39434;-81
2023/04/12 11:55:09;;;;;;;11.38;2.10;;;12.00;99.90;;;;;;4929332;28;40350;-81
2023/04/12 11:58:04;;;;;;;12.77;2.85;;;11.80;99.90;;;;;;4943716;28;39256;-81
2023/04/12 12:00:44;;;;;;;7.43;1.92;;;11.60;99.90;;;;;;4886979;28;48147;-81
2023/04/12 12:03:15;;;;;;;8.50;1.67;;;11.00;99.90;;;;;;4920454;29;40305;-81
2023/04/12 12:05:44;;;;;;;11.50;2.58;;;10.50;99.90;;;;;;4945897;29;38225;-81
2023/04/12 12:08:21;;;;;;;12.50;1.70;;;10.20;99.90;;;;;;4931869;28;38327;-81
2023/04/12 12:10:55;;;;;;;11.73;2.10;;;9.90;99.90;;;;;;4917539;29;38646;-81
2023/04/12 12:13:53;;;;;;;14.32;2.03;;;9.70;99.90;;;;;;4930630;28;50031;-81
2023/04/12 12:16:30;;;;;;;14.13;1.80;;;9.90;99.90;;;;;;4918901;29;39702;-81
2023/04/12 12:19:02;;;;;;;4.35;1.02;;;10.20;99.90;;;;;;4910572;28;39828;-81
2023/04/12 12:21:30;;;;;;;;;;;10.20;99.90;;;;;;4917166;29;48470;-81
2023/04/12 12:23:59;;;;;;;4.32;1.15;;;10.20;99.90;;;;;;4946246;28;40498;-81
2023/04/12 12:26:37;;;;;;;4.78;1.08;;;10.10;99.90;;;;;;4917293;29;49326;-80
2023/04/12 12:29:08;;;;;;;6.47;1.42;;;10.30;99.90;;;;;;4928999;29;39910;-80
2023/04/12 12:31:46;;;;;;;7.13;1.42;;;10.30;99.90;;;;;;4950104;28;36928;-80
2023/04/12 12:34:33;;;;;;;5.57;1.63;;;10.40;99.90;;;;;;4918703;28;39006;-81
2023/04/12 12:37:16;;;;;;;7.28;1.52;;;10.70;99.90;;;;;;4943730;28;38858;-80
2023/04/12 12:40:12;;;;;;;9.90;1.48;;;11.00;99.90;;;;;;4912244;29;50190;-80
2023/04/12 12:43:18;;;;;;;7.60;1.50;;;11.20;99.90;;;;;;4947099;28;49342;-81
2023/04/12 12:46:17;;;;;;;5.20;1.20;;;12.20;99.90;;;;;;4914883;28;47748;-79
2023/04/12 12:48:59;;;;;;;7.22;1.55;;;12.70;99.90;;;;;;4888465;29;48920;-80
2023/04/12 12:52:06;;;;;;;4.95;1.35;;;12.50;99.90;;;;;;4915713;29;49417;-78
2023/04/12 12:55:35;;;;;;;;;;;;;;;;;;;;;
2023/04/12 12:58:40;;;;;;;4.85;0.93;;;13.00;99.90;;;;;;4897276;29;39236;-80
2023/04/12 13:01:42;;;;;;;3.95;1.30;;;12.80;99.90;;;;;;4920802;29;40353;-80
2023/04/12 13:04:57;;;;;;;3.58;1.02;;;12.60;99.90;;;;;;4882942;29;39937;-79
2023/04/12 13:08:13;;;;;;;2.25;0.60;;;12.30;99.90;;;;;;4847076;29;49191;-80
2023/04/12 13:11:22;;;;;;;2.03;0.80;;;11.80;99.90;;;;;;4872738;29;48894;-80
2023/04/12 13:14:16;;;;;;;4.55;0.82;;;11.70;99.90;;;;;;4830057;29;46308;-80
2023/04/12 13:16:48;;;;;;;5.00;0.85;;;11.70;99.90;;;;;;4848523;29;48105;-81
2023/04/12 13:19:18;;;;;;;2.50;0.90;;;11.50;99.90;;;;;;4856482;29;37713;-81
2023/04/12 13:22:07;;;;;;;3.10;1.08;;;11.40;99.90;;;;;;4902268;29;40322;-81
2023/04/12 13:24:41;;;;;;;3.60;0.90;;;11.40;99.90;;;;;;4868349;29;48084;-80
2023/04/12 13:27:15;;;;;;;2.47;0.68;;;11.50;99.90;;;;;;4903824;29;38971;-81
2023/04/12 13:29:52;;;;;;;3.63;0.80;;;11.70;99.90;;;;;;4874888;29;38425;-80
2023/04/12 13:32:41;;;;;;;2.20;0.60;;;12.20;99.90;;;;;;4881315;29;40146;-80
2023/04/12 13:35:12;;;;;;;5.60;0.80;;;12.90;99.90;;;;;;4890966;29;40053;-80
2023/04/12 13:38:06;;;;;;;6.70;1.15;;;12.60;99.90;;;;;;4902305;29;39832;-79
2023/04/12 13:40:38;;;;;;;6.00;0.95;;;12.30;99.90;;;;;;4900680;29;49120;-81
2023/04/12 13:43:16;;;;;;;4.15;0.90;;;12.10;99.90;;;;;;4897019;29;40124;-81
2023/04/12 13:45:50;;;;;;;3.90;0.60;;;11.80;99.90;;;;;;4896535;29;40775;-80
2023/04/12 13:48:20;;;;;;;2.72;0.82;;;11.70;99.90;;;;;;4923258;29;37766;-80
2023/04/12 13:50:46;;;;;;;4.53;0.40;;;11.50;99.90;;;;;;4932083;29;36808;-79
2023/04/12 13:53:16;;;;;;;0.80;0.30;;;11.00;99.90;;;;;;4922003;28;37911;-80
2023/04/12 13:56:05;;;;;;;1.48;0.52;;;10.30;99.90;;;;;;4942100;28;40892;-81
2023/04/12 14:01:51;;;;;;;1.23;0.20;;;10.80;99.90;;;;;;4911948;28;50129;-81
2023/04/12 14:04:51;;;;;;;1.38;0.28;;;11.60;99.90;;;;;;4911003;29;38751;-81
2023/04/12 14:07:24;;;;;;;2.85;0.40;;;12.10;99.90;;;;;;4889574;29;37993;-81
2023/04/12 14:10:36;;;;;;;1.33;0.30;;;12.20;99.90;;;;;;4905810;29;39455;-81
2023/04/12 14:13:27;;;;;;;2.38;0.45;;;12.60;99.90;;;;;;4845523;29;49313;-81
2023/04/12 14:16:03;;;;;;;1.20;0.30;;;12.20;99.90;;;;;;4934187;29;37822;-80
2023/04/12 14:18:35;;;;;;;4.78;0.70;;;12.70;99.90;;;;;;4934030;28;48966;-79
2023/04/12 14:24:57;;;;;;;3.10;0.85;;;13.00;99.90;;;;;;4915656;28;49002;-80
2023/04/12 14:27:28;;;;;;;6.53;0.93;;;13.30;99.90;;;;;;4884169;29;39647;-79
2023/04/12 14:30:06;;;;;;;5.50;1.00;;;13.00;99.90;;;;;;4902768;29;39227;-80
2023/04/12 14:32:50;;;;;;;4.57;0.90;;;12.80;99.90;;;;;;4900085;29;50299;-79
2023/04/12 14:35:28;;;;;;;6.90;0.90;;;12.80;99.90;;;;;;4889977;29;36695;-80
2023/04/12 14:38:14;;;;;;;4.05;0.80;;;13.00;99.90;;;;;;4881819;29;39153;-79
2023/04/12 14:40:42;;;;;;;5.03;0.88;;;13.10;99.90;;;;;;4883870;29;50192;-79
2023/04/12 14:43:17;;;;;;;5.80;1.50;;;12.70;99.90;;;;;;4888571;29;37600;-81
2023/04/12 14:46:02;;;;;;;;;;;;;;;;;;;;;
2023/04/12 14:48:40;;;;;;;7.28;1.10;;;13.10;99.90;;;;;;4866526;29;48563;-80
2023/04/12 14:51:19;;;;;;;6.65;2.03;;;13.50;99.90;;;;;;4890300;29;38489;-80
2023/04/12 14:54:11;;;;;;;3.88;0.70;;;13.10;99.90;;;;;;4903531;29;39974;-80
2023/04/12 14:57:11;;;;;;;7.43;1.10;;;12.40;99.90;;;;;;4860583;29;48266;-80
2023/04/12 14:59:49;;;;;;;6.07;1.10;;;12.00;99.90;;;;;;4884890;29;48302;-80
2023/04/12 15:02:38;;;;;;;3.20;1.05;;;11.90;99.90;;;;;;4897500;29;37897;-80
2023/04/12 15:05:07;;;;;;;3.38;1.00;;;11.90;99.90;;;;;;4907865;29;37658;-80
2023/04/12 15:07:50;;;;;;;3.33;0.82;;;12.20;99.90;;;;;;4864590;29;48577;-80
2023/04/12 15:10:31;;;;;;;4.32;1.13;;;12.60;99.90;;;;;;4863052;29;39589;-81
2023/04/12 15:13:26;;;;;;;4.03;1.02;;;12.70;99.90;;;;;;4864987;29;40273;-80
2023/04/12 15:16:07;;;;;;;6.88;1.40;;;13.10;99.90;;;;;;4841205;29;48878;-81
2023/04/12 15:18:44;;;;;;;7.60;1.15;;;13.40;99.90;;;;;;4838168;29;47828;-80
2023/04/12 15:21:12;;;;;;;3.88;0.88;;;13.10;99.90;;;;;;5194522;23;38660;-81
2023/04/12 15:23:40;;;;;;;6.32;1.20;;;13.00;99.90;;;;;;4938575;29;38726;-81
2023/04/12 15:26:10;;;;;;;6.32;1.48;;;12.90;99.90;;;;;;4935351;28;36791;-81
2023/04/12 15:28:38;;;;;;;6.18;1.33;;;12.70;99.90;;;;;;4927853;28;36268;-81
2023/04/12 15:31:07;;;;;;;7.65;1.58;;;12.70;99.90;;;;;;4933258;29;39983;-80
2023/04/12 15:33:34;;;;;;;6.90;1.23;;;12.90;99.90;;;;;;4922082;29;40259;-81
2023/04/12 15:36:01;;;;;;;5.07;1.40;;;12.60;99.90;;;;;;4944052;28;38530;-82
2023/04/12 15:38:42;;;;;;;8.98;1.73;;;12.50;99.90;;;;;;4925901;28;47032;-80
2023/04/12 15:41:09;;;;;;;9.68;1.58;;;12.40;99.90;;;;;;4929213;28;39205;-81
2023/04/12 15:43:36;;;;;;;8.52;1.40;;;12.30;99.90;;;;;;4922159;29;39467;-78
2023/04/12 15:46:02;;;;;;;10.05;1.48;;;12.10;99.90;;;;;;4925922;28;38370;-78
2023/04/12 15:48:29;;;;;;;6.55;1.48;;;12.00;99.90;;;;;;4930824;28;38231;-80
2023/04/12 15:50:55;;;;;;;8.80;1.40;;;11.90;99.90;;;;;;4907911;29;37824;-80
2023/04/12 15:53:23;;;;;;;9.73;1.80;;;11.90;99.90;;;;;;4918408;29;39196;-80
2023/04/12 15:55:53;;;;;;;11.60;2.33;;;12.40;99.90;;;;;;4935965;28;40096;-80
2023/04/12 15:58:21;;;;;;;12.00;2.40;;;12.80;99.90;;;;;;4914048;28;36349;-80
2023/04/12 16:00:48;;;;;;;15.85;2.30;;;12.90;99.90;;;;;;4914938;28;40480;-80
2023/04/12 16:03:18;;;;;;;11.63;2.00;;;13.00;99.90;;;;;;4918859;28;37477;-80
2023/04/12 16:05:45;;;;;;;9.05;1.60;;;12.80;99.90;;;;;;4931101;28;38560;-79
2023/04/12 16:08:12;;;;;;;10.13;1.90;;;12.40;99.90;;;;;;4914674;29;36146;-80
2023/04/12 16:10:39;;;;;;;7.95;1.88;;;12.20;99.90;;;;;;4915362;28;37971;-80
2023/04/12 16:13:05;;;;;;;9.23;1.80;;;12.00;99.90;;;;;;4919069;28;37696;-81
2023/04/12 16:15:32;;;;;;;10.52;2.47;;;12.10;99.90;;;;;;4919525;29;37941;-78
2023/04/12 16:17:58;;;;;;;15.13;1.92;;;12.10;99.90;;;;;;4946555;28;36414;-81
2023/04/12 16:20:24;;;;;;;11.77;2.22;;;12.00;99.90;;;;;;4943798;28;39077;-82
2023/04/12 16:22:55;;;;;;;10.93;1.85;;;12.00;99.90;;;;;;4959985;28;37645;-82
2023/04/12 16:25:24;;;;;;;6.30;1.50;;;11.90;99.90;;;;;;4948433;28;37440;-81
2023/04/12 16:27:50;;;;;;;9.75;1.55;;;11.90;99.90;;;;;;4961688;28;37911;-81
2023/04/12 16:30:17;;;;;;;7.60;1.25;;;11.90;99.90;;;;;;4941319;28;37671;-81
2023/04/12 16:32:46;;;;;;;10.10;1.50;;;12.30;99.90;;;;;;4946637;28;38834;-80
2023/04/12 16:35:16;;;;;;;9.35;1.77;;;12.30;99.90;;;;;;4936141;28;37408;-81
2023/04/12 16:37:43;;;;;;;8.00;1.50;;;12.20;99.90;;;;;;4947662;28;37432;-80
2023/04/12 16:40:11;;;;;;;10.70;1.75;;;12.10;99.90;;;;;;4935546;28;37765;-80
2023/04/12 16:42:39;;;;;;;10.93;2.42;;;12.10;99.90;;;;;;4940614;28;38888;-80
2023/04/12 16:45:06;;;;;;;8.20;1.55;;;12.00;99.90;;;;;;4940566;28;37647;-80
2023/04/12 16:47:33;;;;;;;8.63;1.83;;;11.90;99.90;;;;;;4939306;28;36057;-80
2023/04/12 16:49:59;;;;;;;10.45;1.55;;;11.80;99.90;;;;;;4938580;28;36842;-80
2023/04/12 16:52:25;;;;;;;8.35;1.73;;;11.80;99.90;;;;;;4951049;28;40437;-78
2023/04/12 16:54:51;;;;;;;8.88;1.42;;;11.80;99.90;;;;;;4928251;28;36711;-79
2023/04/12 16:57:17;;;;;;;6.65;1.27;;;11.70;99.90;;;;;;4941912;28;37341;-79
2023/04/12 16:59:44;;;;;;;7.28;1.90;;;11.70;99.90;;;;;;4941504;28;37957;-77
2023/04/12 17:02:11;;;;;;;6.10;1.25;;;11.70;99.90;;;;;;4952093;28;39660;-79
2023/04/12 17:04:37;;;;;;;6.07;1.77;;;11.70;99.90;;;;;;4930152;28;37686;-80
2023/04/12 17:07:04;;;;;;;9.30;1.77;;;11.70;99.90;;;;;;4950197;28;37597;-80
2023/04/12 17:09:30;;;;;;;6.55;1.42;;;11.60;99.90;;;;;;4927896;28;37610;-80
2023/04/12 17:12:05;;;;;;;7.32;1.30;;;11.60;99.90;;;;;;4928639;28;37886;-82
2023/04/12 17:14:32;;;;;;;7.22;1.38;;;11.60;99.90;;;;;;4948879;28;48346;-81
2023/04/12 17:16:58;;;;;;;5.15;1.17;;;11.60;99.90;;;;;;4932277;28;36005;-80
2023/04/12 17:19:24;;;;;;;6.93;1.50;;;11.60;99.90;;;;;;4932932;28;37242;-80
2023/04/12 17:21:50;;;;;;;9.90;1.40;;;11.50;99.90;;;;;;4931088;28;38614;-80
2023/04/12 17:24:25;;;;;;;4.63;1.10;;;11.40;99.90;;;;;;4935833;28;39106;-80
2023/04/12 17:26:52;;;;;;;10.35;1.80;;;11.30;99.90;;;;;;4918740;28;36644;-78
2023/04/12 17:29:19;;;;;;;9.68;1.92;;;11.30;99.90;;;;;;4927154;28;39731;-80
2023/04/12 17:31:47;;;;;;;7.05;1.70;;;11.30;99.90;;;;;;4921282;28;38758;-80